Time;durP1;ratioP1;P1;durP2;ratioP2;P2;SDS_P1;SDS_P2;PMS_P1;PMS_P2;Temp;Humidity;BMP_temperature;BMP_pressure;BME280_temperature;BME280_humidity;BME280_pressure;Samples;Min_cycle;Max_cycle;Signal;HPM_P1;HPM_P2
2023/09/22 00:00:55;;;;;;;;;;;;;;;;;;5091505;28;19908;-70
2023/09/22 00:03:20;;;;;;;;;;;;;;;;;;5087225;28;19966;-69
2023/09/22 00:05:46;;;;;;;;;;;;;;;;;;5091469;28;20391;-71
2023/09/22 00:08:13;;;;;;;;;;;;;;;;;;5091536;28;19956;-70
2023/09/22 00:10:38;;;;;;;;;;;;;;;;;;5091406;28;19912;-71
2023/09/22 00:13:05;;;;;;;;;;;;;;;;;;5090078;28;19914;-72
2023/09/22 00:15:33;;;;;;;;;;;;;;;;;;5091066;28;19908;-72
2023/09/22 00:17:59;;;;;;;;;;;;;;;;;;5091255;28;19918;-71
2023/09/22 00:20:25;;;;;;;;;;;;;;;;;;5091345;28;19908;-72
2023/09/22 00:22:52;;;;;;;;;;;;;;;;;;5091295;28;19915;-71
2023/09/22 00:25:18;;;;;;;;;;;;;;;;;;5091306;28;19969;-73
2023/09/22 00:27:44;;;;;;;;;;;;;;;;;;5091242;28;19912;-73
2023/09/22 00:30:10;;;;;;;;;;;;;;;;;;5091523;28;19916;-73
2023/09/22 00:32:36;;;;;;;;;;;;;;;;;;5091266;28;19908;-73
2023/09/22 00:35:03;;;;;;;;;;;;;;;;;;5089654;28;20334;-72
2023/09/22 00:37:29;;;;;;;;;;;;;;;;;;5091240;28;20328;-72
2023/09/22 00:39:56;;;;;;;;;;;;;;;;;;5091177;28;20003;-73
2023/09/22 00:42:22;;;;;;;;;;;;;;;;;;5091077;28;20042;-73
2023/09/22 00:44:47;;;;;;;;;;;;;;;;;;5090748;28;19918;-73
2023/09/22 00:47:14;;;;;;;;;;;;;;;;;;5092294;28;19916;-72
2023/09/22 00:49:40;;;;;;;;;;;;;;;;;;5086394;28;19908;-72
2023/09/22 00:52:05;;;;;;;;;;;;;;;;;;5093511;28;20382;-72
2023/09/22 00:54:31;;;;;;;;;;;;;;;;;;5094241;28;19908;-72
2023/09/22 00:56:57;;;;;;;;;;;;;;;;;;5094465;28;20363;-73
2023/09/22 00:59:23;;;;;;;;;;;;;;;;;;5086337;28;19916;-73
2023/09/22 01:01:49;;;;;;;;;;;;;;;;;;5094713;28;19912;-74
2023/09/22 01:04:15;;;;;;;;;;;;;;;;;;5094464;28;19915;-73
2023/09/22 01:06:41;;;;;;;;;;;;;;;;;;5094478;28;19916;-73
2023/09/22 01:09:09;;;;;;;;;;;;;;;;;;5094429;28;19999;-73
2023/09/22 01:11:34;;;;;;;;;;;;;;;;;;5094385;28;20027;-73
2023/09/22 01:14:01;;;;;;;;;;;;;;;;;;5089629;28;20383;-72
2023/09/22 01:16:27;;;;;;;;;;;;;;;;;;5082513;28;19913;-74
2023/09/22 01:18:53;;;;;;;;;;;;;;;;;;5094475;28;19912;-75
2023/09/22 01:21:19;;;;;;;;;;;;;;;;;;5090794;28;20345;-74
2023/09/22 01:23:45;;;;;;;;;;;;;;;;;;5093185;28;19939;-73
2023/09/22 01:26:11;;;;;;;;;;;;;;;;;;5094109;28;19912;-72
2023/09/22 01:28:37;;;;;;;;;;;;;;;;;;5094115;28;20275;-72
2023/09/22 01:31:03;;;;;;;;;;;;;;;;;;5094020;28;19914;-72
2023/09/22 01:33:29;;;;;;;;;;;;;;;;;;5093783;28;19912;-72
2023/09/22 01:35:55;;;;;;;;;;;;;;;;;;5093869;28;20390;-72
2023/09/22 01:38:26;;;;;;;;;;;;;;;;;;5093950;28;19908;-72
2023/09/22 01:40:53;;;;;;;;;;;;;;;;;;5094001;28;19909;-72
2023/09/22 01:43:19;;;;;;;;;;;;;;;;;;5089258;28;19919;-71
2023/09/22 01:45:45;;;;;;;;;;;;;;;;;;5093470;28;19912;-72
2023/09/22 01:48:11;;;;;;;;;;;;;;;;;;5093780;28;20283;-72
2023/09/22 01:50:37;;;;;;;;;;;;;;;;;;5093642;28;19912;-72
2023/09/22 01:53:03;;;;;;;;;;;;;;;;;;5093711;28;19908;-71
2023/09/22 01:55:29;;;;;;;;;;;;;;;;;;5093277;28;19923;-72
2023/09/22 01:57:55;;;;;;;;;;;;;;;;;;5093448;28;19915;-72
2023/09/22 02:00:21;;;;;;;;;;;;;;;;;;5092934;28;20383;-72
2023/09/22 02:02:47;;;;;;;;;;;;;;;;;;5093362;28;19915;-72
2023/09/22 02:05:14;;;;;;;;;;;;;;;;;;5093062;28;20333;-71
2023/09/22 02:07:40;;;;;;;;;;;;;;;;;;5093388;28;20375;-71
2023/09/22 02:10:06;;;;;;;;;;;;;;;;;;5092373;28;19915;-72
2023/09/22 02:12:32;;;;;;;;;;;;;;;;;;5093347;28;19908;-72
2023/09/22 02:15:00;;;;;;;;;;;;;;;;;;5093092;28;19915;-73
2023/09/22 02:17:26;;;;;;;;;;;;;;;;;;5093401;28;20272;-72
2023/09/22 02:19:52;;;;;;;;;;;;;;;;;;5093064;28;19908;-72
2023/09/22 02:22:17;;;;;;;;;;;;;;;;;;5092923;28;19909;-73
2023/09/22 02:24:43;;;;;;;;;;;;;;;;;;5092413;28;20399;-73
2023/09/22 02:27:09;;;;;;;;;;;;;;;;;;5092998;28;19923;-71
2023/09/22 02:29:35;;;;;;;;;;;;;;;;;;5093113;28;19994;-72
2023/09/22 02:32:01;;;;;;;;;;;;;;;;;;5093044;28;19912;-72
2023/09/22 02:34:27;;;;;;;;;;;;;;;;;;5092704;28;19912;-72
2023/09/22 02:36:53;;;;;;;;;;;;;;;;;;5092650;28;19908;-72
2023/09/22 02:39:19;;;;;;;;;;;;;;;;;;5093150;28;20354;-72
2023/09/22 02:41:45;;;;;;;;;;;;;;;;;;5093055;28;19999;-72
2023/09/22 02:44:13;;;;;;;;;;;;;;;;;;5092643;28;19935;-71
2023/09/22 02:46:39;;;;;;;;;;;;;;;;;;5092494;28;19924;-72
2023/09/22 02:49:05;;;;;;;;;;;;;;;;;;5092763;28;20276;-72
2023/09/22 02:51:31;;;;;;;;;;;;;;;;;;5092713;28;19915;-71
2023/09/22 02:53:57;;;;;;;;;;;;;;;;;;5092314;28;19928;-71
2023/09/22 02:56:24;;;;;;;;;;;;;;;;;;5092650;28;19908;-72
2023/09/22 02:58:49;;;;;;;;;;;;;;;;;;5092445;28;19991;-71
2023/09/22 03:01:15;;;;;;;;;;;;;;;;;;5084063;28;19951;-71
2023/09/22 03:03:42;;;;;;;;;;;;;;;;;;5090887;28;19908;-71
2023/09/22 03:06:08;;;;;;;;;;;;;;;;;;5092242;28;19919;-71
2023/09/22 03:08:34;;;;;;;;;;;;;;;;;;5092274;28;19961;-71
2023/09/22 03:11:00;;;;;;;;;;;;;;;;;;5092260;28;20005;-71
2023/09/22 03:13:26;;;;;;;;;;;;;;;;;;5092094;28;19994;-71
2023/09/22 03:15:53;;;;;;;;;;;;;;;;;;5092413;28;19908;-71
2023/09/22 03:18:19;;;;;;;;;;;;;;;;;;5092292;28;19918;-71
2023/09/22 03:20:46;;;;;;;;;;;;;;;;;;5091832;28;19915;-72
2023/09/22 03:23:11;;;;;;;;;;;;;;;;;;5091936;28;20003;-71
2023/09/22 03:25:37;;;;;;;;;;;;;;;;;;5091985;28;20008;-72
2023/09/22 03:28:03;;;;;;;;;;;;;;;;;;5092075;28;19908;-72
2023/09/22 03:30:29;;;;;;;;;;;;;;;;;;5091834;28;19957;-72
2023/09/22 03:32:56;;;;;;;;;;;;;;;;;;5091737;28;19908;-72
2023/09/22 03:35:22;;;;;;;;;;;;;;;;;;5091569;28;19947;-72
2023/09/22 03:37:48;;;;;;;;;;;;;;;;;;5091855;28;19916;-72
2023/09/22 03:40:14;;;;;;;;;;;;;;;;;;5092108;28;19914;-72
2023/09/22 03:42:41;;;;;;;;;;;;;;;;;;5091777;28;19916;-72
2023/09/22 03:45:07;;;;;;;;;;;;;;;;;;5091436;28;20253;-72
2023/09/22 03:47:33;;;;;;;;;;;;;;;;;;5091093;28;19908;-72
2023/09/22 03:49:59;;;;;;;;;;;;;;;;;;5084141;28;19965;-72
2023/09/22 03:52:25;;;;;;;;;;;;;;;;;;5092004;28;19908;-72
2023/09/22 03:54:51;;;;;;;;;;;;;;;;;;5091686;28;19915;-72
2023/09/22 03:57:18;;;;;;;;;;;;;;;;;;5091641;28;19912;-74
2023/09/22 03:59:44;;;;;;;;;;;;;;;;;;5091832;28;20090;-74
2023/09/22 04:02:10;;;;;;;;;;;;;;;;;;5091540;28;19950;-73
2023/09/22 04:04:36;;;;;;;;;;;;;;;;;;5091021;28;20002;-72
2023/09/22 04:07:02;;;;;;;;;;;;;;;;;;5091257;28;19916;-73
2023/09/22 04:09:28;;;;;;;;;;;;;;;;;;5091345;28;19908;-73
2023/09/22 04:11:54;;;;;;;;;;;;;;;;;;5083474;28;19908;-73
2023/09/22 04:14:23;;;;;;;;;;;;;;;;;;5090935;28;20379;-73
2023/09/22 04:16:49;;;;;;;;;;;;;;;;;;5091146;28;20523;-74
2023/09/22 04:19:15;;;;;;;;;;;;;;;;;;5091132;28;19933;-73
2023/09/22 04:21:44;;;;;;;;;;;;;;;;;;5091531;28;19962;-73
2023/09/22 04:24:11;;;;;;;;;;;;;;;;;;5095033;28;20275;-73
2023/09/22 04:26:42;;;;;;;;;;;;;;;;;;5095107;28;20015;-73
2023/09/22 04:29:08;;;;;;;;;;;;;;;;;;5095078;28;19931;-73
2023/09/22 04:31:34;;;;;;;;;;;;;;;;;;5095044;28;20006;-73
2023/09/22 04:34:01;;;;;;;;;;;;;;;;;;5094746;28;20012;-73
2023/09/22 04:36:27;;;;;;;;;;;;;;;;;;5094774;28;19915;-73
2023/09/22 04:38:52;;;;;;;;;;;;;;;;;;5094916;28;19908;-73
2023/09/22 04:41:21;;;;;;;;;;;;;;;;;;5094886;28;20428;-71
2023/09/22 04:43:47;;;;;;;;;;;;;;;;;;5094593;28;19962;-72
2023/09/22 04:46:14;;;;;;;;;;;;;;;;;;5096313;28;19912;-73
2023/09/22 04:48:40;;;;;;;;;;;;;;;;;;5094567;28;19912;-73
2023/09/22 04:51:06;;;;;;;;;;;;;;;;;;5094889;28;19908;-74
2023/09/22 04:53:32;;;;;;;;;;;;;;;;;;5094557;28;19908;-73
2023/09/22 04:55:58;;;;;;;;;;;;;;;;;;5094629;28;19915;-73
2023/09/22 04:58:24;;;;;;;;;;;;;;;;;;5094630;28;19908;-73
2023/09/22 05:00:50;;;;;;;;;;;;;;;;;;5094444;28;19908;-73
2023/09/22 05:03:16;;;;;;;;;;;;;;;;;;5094506;28;19954;-73
2023/09/22 05:05:42;;;;;;;;;;;;;;;;;;5087601;28;19948;-72
2023/09/22 05:08:08;;;;;;;;;;;;;;;;;;5094405;28;19951;-71
2023/09/22 05:10:34;;;;;;;;;;;;;;;;;;5094221;28;19915;-73
2023/09/22 05:13:04;;;;;;;;;;;;;;;;;;5094120;28;20292;-72
2023/09/22 05:15:29;;;;;;;;;;;;;;;;;;5093841;28;19916;-72
2023/09/22 05:17:55;;;;;;;;;;;;;;;;;;5093698;28;19991;-72
2023/09/22 05:20:21;;;;;;;;;;;;;;;;;;5092758;28;19908;-72
2023/09/22 05:22:47;;;;;;;;;;;;;;;;;;5089161;28;19909;-72
2023/09/22 05:25:15;;;;;;;;;;;;;;;;;;5093642;28;19923;-73
2023/09/22 05:27:42;;;;;;;;;;;;;;;;;;5093798;28;19938;-73
2023/09/22 05:30:08;;;;;;;;;;;;;;;;;;5093892;28;20290;-71
2023/09/22 05:32:33;;;;;;;;;;;;;;;;;;5093271;28;19908;-72
2023/09/22 05:34:59;;;;;;;;;;;;;;;;;;5092026;28;20298;-73
2023/09/22 05:37:26;;;;;;;;;;;;;;;;;;5093758;28;19908;-73
2023/09/22 05:39:53;;;;;;;;;;;;;;;;;;5093628;28;20348;-73
2023/09/22 05:42:19;;;;;;;;;;;;;;;;;;5093785;28;20299;-72
2023/09/22 05:44:46;;;;;;;;;;;;;;;;;;5093507;28;19988;-79
2023/09/22 05:47:12;;;;;;;;;;;;;;;;;;5093466;28;19912;-73
2023/09/22 05:49:38;;;;;;;;;;;;;;;;;;5093652;28;19908;-73
2023/09/22 05:52:04;;;;;;;;;;;;;;;;;;5093676;28;19908;-73
2023/09/22 05:54:30;;;;;;;;;;;;;;;;;;5093049;28;19909;-72
2023/09/22 05:56:56;;;;;;;;;;;;;;;;;;5093355;28;20287;-74
2023/09/22 05:59:24;;;;;;;;;;;;;;;;;;5092722;28;19995;-73
2023/09/22 06:01:50;;;;;;;;;;;;;;;;;;5083674;28;19916;-72
2023/09/22 06:04:15;;;;;;;;;;;;;;;;;;5093144;28;19909;-72
2023/09/22 06:06:42;;;;;;;;;;;;;;;;;;5093135;28;19913;-72
2023/09/22 06:09:11;;;;;;;;;;;;;;;;;;5093241;28;19908;-72
2023/09/22 06:11:37;;;;;;;;;;;;;;;;;;5092892;28;19908;-72
2023/09/22 06:14:04;;;;;;;;;;;;;;;;;;5087865;28;19962;-72
2023/09/22 06:16:30;;;;;;;;;;;;;;;;;;5089505;28;19915;-72
2023/09/22 06:18:56;;;;;;;;;;;;;;;;;;5092942;28;20460;-73
2023/09/22 06:21:22;;;;;;;;;;;;;;;;;;5092951;28;19915;-73
2023/09/22 06:23:49;;;;;;;;;;;;;;;;;;5090708;28;19920;-72
2023/09/22 06:26:16;;;;;;;;;;;;;;;;;;5123252;22;19929;-74
2023/09/22 06:28:42;;;;;;;;;;;;;;;;;;5046973;28;19935;-74
2023/09/22 06:31:08;;;;;;;;;;;;;;;;;;5031145;28;20119;-73
2023/09/22 06:33:34;;;;;;;;;;;;;;;;;;5033556;28;19909;-73
2023/09/22 06:36:00;;;;;;;;;;;;;;;;;;5038476;28;20397;-74
2023/09/22 06:38:26;;;;;;;;;;;;;;;;;;5029764;28;19917;-72
2023/09/22 06:40:55;;;;;;;;;;;;;;;;;;5022358;28;19989;-72
2023/09/22 06:43:23;;;;;;;;;;;;;;;;;;5028987;28;19916;-72
2023/09/22 06:45:51;;;;;;;;;;;;;;;;;;5022847;28;19933;-75
2023/09/22 06:48:17;;;;;;;;;;;;;;;;;;5022108;28;20383;-72
2023/09/22 06:50:43;;;;;;;;;;;;;;;;;;5022103;28;20000;-74
2023/09/22 06:53:09;;;;;;;;;;;;;;;;;;5025301;28;19909;-74
2023/09/22 06:55:36;;;;;;;;;;;;;;;;;;5026371;28;20299;-71
2023/09/22 06:58:06;;;;;;;;;;;;;;;;;;5021901;28;20281;-72
2023/09/22 07:00:32;;;;;;;;;;;;;;;;;;5021836;28;20053;-72
2023/09/22 07:02:57;;;;;;;;;;;;;;;;;;5022873;28;19913;-73
2023/09/22 07:05:24;;;;;;;;;;;;;;;;;;5028257;28;19955;-74
2023/09/22 07:07:50;;;;;;;;;;;;;;;;;;5022280;28;20300;-71
2023/09/22 07:10:16;;;;;;;;;;;;;;;;;;5040054;28;19909;-71
2023/09/22 07:12:45;;;;;;;;;;;;;;;;;;5045271;28;19916;-72
2023/09/22 07:15:10;;;;;;;;;;;;;;;;;;5033574;28;19920;-71
2023/09/22 07:17:36;;;;;;;;;;;;;;;;;;5035458;28;19909;-71
2023/09/22 07:20:08;;;;;;;;;;;;;;;;;;5032226;28;19910;-72
2023/09/22 07:22:34;;;;;;;;;;;;;;;;;;5032187;28;19916;-73
2023/09/22 07:25:00;;;;;;;;;;;;;;;;;;5035619;28;19910;-73
2023/09/22 07:27:26;;;;;;;;;;;;;;;;;;5035567;28;20295;-71
2023/09/22 07:29:52;;;;;;;;;;;;;;;;;;5021172;28;19909;-74
2023/09/22 07:32:18;;;;;;;;;;;;;;;;;;5021312;28;19910;-74
2023/09/22 07:34:45;;;;;;;;;;;;;;;;;;5019456;28;19916;-73
2023/09/22 07:37:11;;;;;;;;;;;;;;;;;;5025236;28;20377;-71
2023/09/22 07:39:37;;;;;;;;;;;;;;;;;;5025752;28;20229;-71
2023/09/22 07:42:03;;;;;;;;;;;;;;;;;;5021467;28;19917;-71
2023/09/22 07:44:30;;;;;;;;;;;;;;;;;;5003706;28;20526;-71
2023/09/22 07:46:58;;;;;;;;;;;;;;;;;;5021999;28;20030;-70
2023/09/22 07:49:24;;;;;;;;;;;;;;;;;;5028416;28;20058;-71
2023/09/22 07:51:50;;;;;;;;;;;;;;;;;;5022294;28;19941;-72
2023/09/22 07:54:17;;;;;;;;;;;;;;;;;;5021100;28;19909;-71
2023/09/22 07:56:45;;;;;;;;;;;;;;;;;;5021925;28;19913;-72
2023/09/22 07:59:13;;;;;;;;;;;;;;;;;;5012302;28;19910;-72
2023/09/22 08:01:42;;;;;;;;;;;;;;;;;;5029206;28;19909;-72
2023/09/22 08:04:08;;;;;;;;;;;;;;;;;;5007439;28;20000;-72
2023/09/22 08:06:34;;;;;;;;;;;;;;;;;;5025087;28;19996;-72
2023/09/22 08:09:00;;;;;;;;;;;;;;;;;;5009408;28;19910;-72
2023/09/22 08:11:26;;;;;;;;;;;;;;;;;;5031906;28;19916;-72
2023/09/22 08:13:52;;;;;;;;;;;;;;;;;;5025146;28;20293;-71
2023/09/22 08:16:18;;;;;;;;;;;;;;;;;;5024989;28;19909;-72
2023/09/22 08:18:44;;;;;;;;;;;;;;;;;;5024988;28;19910;-72
2023/09/22 08:21:10;;;;;;;;;;;;;;;;;;5031284;28;19916;-72
2023/09/22 08:23:36;;;;;;;;;;;;;;;;;;5029530;28;19988;-72
2023/09/22 08:26:05;;;;;;;;;;;;;;;;;;5024691;28;19924;-72
2023/09/22 08:28:31;;;;;;;;;;;;;;;;;;5007246;28;19910;-71
2023/09/22 08:30:57;;;;;;;;;;;;;;;;;;5008123;28;19917;-72
2023/09/22 08:33:23;;;;;;;;;;;;;;;;;;5013844;28;19915;-72
2023/09/22 08:35:49;;;;;;;;;;;;;;;;;;5026188;28;19913;-72
2023/09/22 08:38:14;;;;;;;;;;;;;;;;;;5025005;28;19916;-72
2023/09/22 08:40:40;;;;;;;;;;;;;;;;;;5024624;28;20355;-72
2023/09/22 08:43:08;;;;;;;;;;;;;;;;;;5028371;28;20407;-72
2023/09/22 08:45:34;;;;;;;;;;;;;;;;;;5029887;28;19959;-72
2023/09/22 08:48:00;;;;;;;;;;;;;;;;;;5011747;28;19909;-72
2023/09/22 08:50:26;;;;;;;;;;;;;;;;;;5032533;28;20369;-72
2023/09/22 08:52:52;;;;;;;;;;;;;;;;;;5024784;28;19909;-73
2023/09/22 08:55:18;;;;;;;;;;;;;;;;;;5031391;28;20674;-72
2023/09/22 08:57:44;;;;;;;;;;;;;;;;;;5038636;28;19920;-72
2023/09/22 09:00:12;;;;;;;;;;;;;;;;;;5007153;28;19915;-72
2023/09/22 09:02:38;;;;;;;;;;;;;;;;;;5024659;28;19956;-72
2023/09/22 09:05:04;;;;;;;;;;;;;;;;;;5026808;28;19987;-72
2023/09/22 09:07:31;;;;;;;;;;;;;;;;;;5030114;28;20447;-72
2023/09/22 09:09:58;;;;;;;;;;;;;;;;;;5024001;28;20000;-72
2023/09/22 09:12:25;;;;;;;;;;;;;;;;;;5023967;28;19916;-72
2023/09/22 09:14:51;;;;;;;;;;;;;;;;;;5023731;28;19917;-72
2023/09/22 09:17:17;;;;;;;;;;;;;;;;;;5012312;28;20308;-71
2023/09/22 09:19:43;;;;;;;;;;;;;;;;;;5028749;28;19919;-73
2023/09/22 09:22:10;;;;;;;;;;;;;;;;;;5033330;28;20000;-74
2023/09/22 09:24:35;;;;;;;;;;;;;;;;;;5023381;28;20008;-72
2023/09/22 09:27:01;;;;;;;;;;;;;;;;;;5025560;28;20457;-73
2023/09/22 09:29:28;;;;;;;;;;;;;;;;;;5030630;28;19951;-73
2023/09/22 09:31:55;;;;;;;;;;;;;;;;;;5023707;28;19909;-71
2023/09/22 09:34:23;;;;;;;;;;;;;;;;;;5005702;28;19915;-71
2023/09/22 09:36:49;;;;;;;;;;;;;;;;;;5005664;28;20300;-71
2023/09/22 09:39:17;;;;;;;;;;;;;;;;;;5029635;28;19909;-71
2023/09/22 09:41:43;;;;;;;;;;;;;;;;;;5026436;28;19912;-71
2023/09/22 09:44:09;;;;;;;;;;;;;;;;;;5023465;28;20370;-72
2023/09/22 09:46:36;;;;;;;;;;;;;;;;;;5023440;28;20377;-71
2023/09/22 09:49:01;;;;;;;;;;;;;;;;;;5025646;28;19945;-69
2023/09/22 09:51:27;;;;;;;;;;;;;;;;;;5030185;28;20284;-71
2023/09/22 09:53:53;;;;;;;;;;;;;;;;;;5023269;28;19910;-70
2023/09/22 09:56:19;;;;;;;;;;;;;;;;;;5023179;28;19909;-71
2023/09/22 09:58:45;;;;;;;;;;;;;;;;;;5023409;28;19921;-71
2023/09/22 10:01:11;;;;;;;;;;;;;;;;;;5010149;28;19909;-72
2023/09/22 10:03:39;;;;;;;;;;;;;;;;;;5027463;28;19909;-73
2023/09/22 10:06:06;;;;;;;;;;;;;;;;;;5022887;28;19914;-72
2023/09/22 10:08:32;;;;;;;;;;;;;;;;;;5022975;28;19909;-72
2023/09/22 10:10:59;;;;;;;;;;;;;;;;;;5024215;28;19909;-72
2023/09/22 10:13:24;;;;;;;;;;;;;;;;;;5029735;28;19909;-71
2023/09/22 10:15:51;;;;;;;;;;;;;;;;;;5024002;28;19940;-72
2023/09/22 10:18:17;;;;;;;;;;;;;;;;;;5005144;28;19913;-72
2023/09/22 10:20:44;;;;;;;;;;;;;;;;;;5004968;28;20506;-75
2023/09/22 10:23:10;;;;;;;;;;;;;;;;;;5027221;28;19952;-72
2023/09/22 10:25:36;;;;;;;;;;;;;;;;;;5007028;28;19978;-72
2023/09/22 10:28:04;;;;;;;;;;;;;;;;;;5037698;28;19909;-72
2023/09/22 10:30:30;;;;;;;;;;;;;;;;;;5036814;28;19920;-71
2023/09/22 10:32:56;;;;;;;;;;;;;;;;;;5013664;28;19909;-72
2023/09/22 10:35:22;;;;;;;;;;;;;;;;;;5040615;28;20003;-72
2023/09/22 10:37:48;;;;;;;;;;;;;;;;;;5006386;28;19909;-72
2023/09/22 10:40:19;;;;;;;;;;;;;;;;;;5028433;28;19909;-72
2023/09/22 10:42:46;;;;;;;;;;;;;;;;;;5026937;28;19994;-72
2023/09/22 10:45:11;;;;;;;;;;;;;;;;;;5026993;28;19956;-73
2023/09/22 10:47:37;;;;;;;;;;;;;;;;;;5026862;28;20443;-72
2023/09/22 10:50:03;;;;;;;;;;;;;;;;;;5022270;28;20123;-72
2023/09/22 10:52:29;;;;;;;;;;;;;;;;;;5022200;28;19968;-71
2023/09/22 10:54:55;;;;;;;;;;;;;;;;;;5022283;28;19945;-72
2023/09/22 10:57:21;;;;;;;;;;;;;;;;;;5032969;28;20444;-72
2023/09/22 10:59:47;;;;;;;;;;;;;;;;;;5034442;28;19999;-72
2023/09/22 11:02:13;;;;;;;;;;;;;;;;;;5029895;28;19909;-72
2023/09/22 11:04:39;;;;;;;;;;;;;;;;;;5025384;28;20395;-71
2023/09/22 11:07:05;;;;;;;;;;;;;;;;;;5005987;28;19917;-72
2023/09/22 11:09:31;;;;;;;;;;;;;;;;;;5028198;28;20368;-71
2023/09/22 11:11:57;;;;;;;;;;;;;;;;;;5004155;28;19909;-74
2023/09/22 11:14:23;;;;;;;;;;;;;;;;;;5031715;28;19913;-72
2023/09/22 11:16:49;;;;;;;;;;;;;;;;;;5029126;28;20404;-71
2023/09/22 11:19:15;;;;;;;;;;;;;;;;;;5029957;28;19945;-72
2023/09/22 11:21:42;;;;;;;;;;;;;;;;;;5028673;28;20003;-72
2023/09/22 11:24:08;;;;;;;;;;;;;;;;;;5010727;28;20567;-72
2023/09/22 11:26:34;;;;;;;;;;;;;;;;;;4992533;28;19969;-71
2023/09/22 11:29:01;;;;;;;;;;;;;;;;;;5029431;28;19913;-71
2023/09/22 11:31:27;;;;;;;;;;;;;;;;;;5031608;28;19913;-72
2023/09/22 11:33:53;;;;;;;;;;;;;;;;;;5030253;28;20269;-72
2023/09/22 11:36:19;;;;;;;;;;;;;;;;;;5013879;28;19917;-74
2023/09/22 11:38:47;;;;;;;;;;;;;;;;;;5031805;28;19913;-72
2023/09/22 11:41:15;;;;;;;;;;;;;;;;;;5031904;28;19909;-72
2023/09/22 11:43:41;;;;;;;;;;;;;;;;;;5031607;28;19953;-72
2023/09/22 11:46:07;;;;;;;;;;;;;;;;;;5030069;28;19968;-72
2023/09/22 11:48:33;;;;;;;;;;;;;;;;;;5031258;28;19955;-73
2023/09/22 11:50:59;;;;;;;;;;;;;;;;;;5031697;28;19909;-72
2023/09/22 11:53:25;;;;;;;;;;;;;;;;;;5031124;28;19916;-73
2023/09/22 11:55:51;;;;;;;;;;;;;;;;;;5030269;28;19910;-71
2023/09/22 11:58:17;;;;;;;;;;;;;;;;;;5030255;28;19955;-72
2023/09/22 12:00:43;;;;;;;;;;;;;;;;;;5032137;28;20007;-72
2023/09/22 12:03:09;;;;;;;;;;;;;;;;;;5030432;28;19931;-73
2023/09/22 12:05:38;;;;;;;;;;;;;;;;;;5029172;28;19913;-72
2023/09/22 12:08:04;;;;;;;;;;;;;;;;;;5031161;28;19949;-73
2023/09/22 12:10:30;;;;;;;;;;;;;;;;;;5031490;28;19916;-72
2023/09/22 12:12:56;;;;;;;;;;;;;;;;;;5031253;28;19909;-73
2023/09/22 12:15:22;;;;;;;;;;;;;;;;;;5030572;28;19913;-73
2023/09/22 12:17:49;;;;;;;;;;;;;;;;;;5031501;28;19916;-74
2023/09/22 12:20:15;;;;;;;;;;;;;;;;;;5031470;28;20411;-73
2023/09/22 12:22:41;;;;;;;;;;;;;;;;;;5031437;28;19959;-72
2023/09/22 12:25:07;;;;;;;;;;;;;;;;;;5030798;28;19917;-72
2023/09/22 12:27:33;;;;;;;;;;;;;;;;;;5089500;22;20460;-71
2023/09/22 12:29:59;;;;;;;;;;;;;;;;;;5070842;28;19920;-71
2023/09/22 12:32:25;;;;;;;;;;;;;;;;;;5071534;28;19909;-70
2023/09/22 12:34:51;;;;;;;;;;;;;;;;;;5070785;28;19978;-73
2023/09/22 12:37:17;;;;;;;;;;;;;;;;;;5071093;28;19909;-71
2023/09/22 12:39:43;;;;;;;;;;;;;;;;;;5071089;28;19919;-72
2023/09/22 12:42:09;;;;;;;;;;;;;;;;;;5069706;28;19912;-72
2023/09/22 12:44:37;;;;;;;;;;;;;;;;;;5074922;28;19916;-70
2023/09/22 12:47:03;;;;;;;;;;;;;;;;;;5074658;28;20002;-72
2023/09/22 12:49:29;;;;;;;;;;;;;;;;;;5074916;28;19956;-73
2023/09/22 12:51:55;;;;;;;;;;;;;;;;;;5074398;28;19913;-73
2023/09/22 12:54:21;;;;;;;;;;;;;;;;;;5074796;28;19971;-73
2023/09/22 12:56:47;;;;;;;;;;;;;;;;;;5074280;28;19962;-71
2023/09/22 12:59:13;;;;;;;;;;;;;;;;;;5072839;28;19908;-71
2023/09/22 13:01:39;;;;;;;;;;;;;;;;;;5074592;28;20011;-71
2023/09/22 13:04:05;;;;;;;;;;;;;;;;;;5074198;28;19909;-70
2023/09/22 13:06:31;;;;;;;;;;;;;;;;;;5074174;28;20504;-71
2023/09/22 13:08:57;;;;;;;;;;;;;;;;;;5074524;28;19916;-70
2023/09/22 13:11:23;;;;;;;;;;;;;;;;;;5074447;28;19953;-71
2023/09/22 13:13:49;;;;;;;;;;;;;;;;;;5072709;28;19916;-71
2023/09/22 13:16:15;;;;;;;;;;;;;;;;;;5074341;28;19908;-72
2023/09/22 13:18:44;;;;;;;;;;;;;;;;;;5074308;28;20061;-72
2023/09/22 13:21:09;;;;;;;;;;;;;;;;;;5074394;28;19916;-71
2023/09/22 13:23:35;;;;;;;;;;;;;;;;;;5074236;28;20364;-72
2023/09/22 13:26:04;;;;;;;;;;;;;;;;;;5073635;28;19985;-71
2023/09/22 13:28:30;;;;;;;;;;;;;;;;;;5073104;28;19912;-71
2023/09/22 13:30:55;;;;;;;;;;;;;;;;;;5073177;28;19967;-70
2023/09/22 13:33:21;;;;;;;;;;;;;;;;;;5072834;28;19963;-71
2023/09/22 13:35:48;;;;;;;;;;;;;;;;;;5072732;28;19908;-71
2023/09/22 13:38:15;;;;;;;;;;;;;;;;;;5073157;28;19916;-71
2023/09/22 13:40:42;;;;;;;;;;;;;;;;;;5072989;28;20291;-72
2023/09/22 13:43:08;;;;;;;;;;;;;;;;;;5073739;28;19913;-71
2023/09/22 13:45:37;;;;;;;;;;;;;;;;;;5073351;28;19916;-72
2023/09/22 13:48:03;;;;;;;;;;;;;;;;;;5073808;28;19908;-73
2023/09/22 13:50:29;;;;;;;;;;;;;;;;;;5074048;28;19916;-72
2023/09/22 13:52:55;;;;;;;;;;;;;;;;;;5072789;28;20338;-71
2023/09/22 13:55:21;;;;;;;;;;;;;;;;;;5071798;28;20003;-71
2023/09/22 13:57:47;;;;;;;;;;;;;;;;;;5073079;28;19995;-71
2023/09/22 14:00:13;;;;;;;;;;;;;;;;;;5073016;28;19909;-71
2023/09/22 14:02:39;;;;;;;;;;;;;;;;;;5073132;28;19935;-71
2023/09/22 14:05:05;;;;;;;;;;;;;;;;;;5072598;28;19915;-71
2023/09/22 14:07:31;;;;;;;;;;;;;;;;;;5072406;28;19913;-70
2023/09/22 14:09:57;;;;;;;;;;;;;;;;;;5072452;28;20465;-71
2023/09/22 14:12:23;;;;;;;;;;;;;;;;;;5072430;28;19909;-70
2023/09/22 14:14:48;;;;;;;;;;;;;;;;;;5072251;28;19913;-70
2023/09/22 14:17:15;;;;;;;;;;;;;;;;;;5072285;28;19908;-70
2023/09/22 14:19:41;;;;;;;;;;;;;;;;;;5072284;28;19915;-71
2023/09/22 14:22:07;;;;;;;;;;;;;;;;;;5072270;28;19909;-70
2023/09/22 14:24:34;;;;;;;;;;;;;;;;;;5070739;28;20381;-70
2023/09/22 14:27:00;;;;;;;;;;;;;;;;;;5007980;28;1766757;-71
2023/09/22 14:29:26;;;;;;;;;;;;;;;;;;5072318;28;19954;-70
2023/09/22 14:31:52;;;;;;;;;;;;;;;;;;5073036;28;19911;-71
2023/09/22 14:34:18;;;;;;;;;;;;;;;;;;5072691;28;19908;-71
2023/09/22 14:36:44;;;;;;;;;;;;;;;;;;5072531;28;20245;-72
2023/09/22 14:39:10;;;;;;;;;;;;;;;;;;5072756;28;19916;-70
2023/09/22 14:41:36;;;;;;;;;;;;;;;;;;5072732;28;19908;-70
2023/09/22 14:44:02;;;;;;;;;;;;;;;;;;5071995;28;20283;-71
2023/09/22 14:46:28;;;;;;;;;;;;;;;;;;5072304;28;19941;-70
2023/09/22 14:48:54;;;;;;;;;;;;;;;;;;5072472;28;19909;-71
2023/09/22 14:51:20;;;;;;;;;;;;;;;;;;5072396;28;20394;-71
2023/09/22 14:53:46;;;;;;;;;;;;;;;;;;5072077;28;20411;-73
2023/09/22 14:56:12;;;;;;;;;;;;;;;;;;5072045;28;19919;-71
2023/09/22 14:58:38;;;;;;;;;;;;;;;;;;5072273;28;19908;-71
2023/09/22 15:01:04;;;;;;;;;;;;;;;;;;5072331;28;19909;-71
2023/09/22 15:03:31;;;;;;;;;;;;;;;;;;5072171;28;19937;-71
2023/09/22 15:05:57;;;;;;;;;;;;;;;;;;5071303;28;19919;-72
2023/09/22 15:08:23;;;;;;;;;;;;;;;;;;5072589;28;19916;-71
2023/09/22 15:10:50;;;;;;;;;;;;;;;;;;5072186;28;19912;-71
2023/09/22 15:13:16;;;;;;;;;;;;;;;;;;5071818;28;19920;-71
2023/09/22 15:15:43;;;;;;;;;;;;;;;;;;5070633;28;20334;-71
2023/09/22 15:18:08;;;;;;;;;;;;;;;;;;5072071;28;19928;-71
2023/09/22 15:20:34;;;;;;;;;;;;;;;;;;5071971;28;19908;-71
2023/09/22 15:23:00;;;;;;;;;;;;;;;;;;5071666;28;19962;-71
2023/09/22 15:25:26;;;;;;;;;;;;;;;;;;5071168;28;19920;-72
2023/09/22 15:27:52;;;;;;;;;;;;;;;;;;5071710;28;19916;-72
2023/09/22 15:30:18;;;;;;;;;;;;;;;;;;5071664;28;19909;-71
2023/09/22 15:32:44;;;;;;;;;;;;;;;;;;5071638;28;19970;-71
2023/09/22 15:35:10;;;;;;;;;;;;;;;;;;5071193;28;19956;-71
2023/09/22 15:37:36;;;;;;;;;;;;;;;;;;5070416;28;19909;-73
2023/09/22 15:40:02;;;;;;;;;;;;;;;;;;5071921;28;19973;-72
2023/09/22 15:42:28;;;;;;;;;;;;;;;;;;5071480;28;19931;-71
2023/09/22 15:44:54;;;;;;;;;;;;;;;;;;5071507;28;20364;-71
2023/09/22 15:47:20;;;;;;;;;;;;;;;;;;5071709;28;19917;-72
2023/09/22 15:49:46;;;;;;;;;;;;;;;;;;5071745;28;19932;-72
2023/09/22 15:52:12;;;;;;;;;;;;;;;;;;5071966;28;19951;-71
2023/09/22 15:54:38;;;;;;;;;;;;;;;;;;5071740;28;19988;-71
2023/09/22 15:57:04;;;;;;;;;;;;;;;;;;5071834;28;19916;-71
2023/09/22 15:59:30;;;;;;;;;;;;;;;;;;5072011;28;20299;-71
2023/09/22 16:01:56;;;;;;;;;;;;;;;;;;5070695;28;19931;-73
2023/09/22 16:04:22;;;;;;;;;;;;;;;;;;5071319;28;20386;-73
2023/09/22 16:06:49;;;;;;;;;;;;;;;;;;5072584;28;20007;-70
2023/09/22 16:09:16;;;;;;;;;;;;;;;;;;5071450;28;19913;-73
2023/09/22 16:11:42;;;;;;;;;;;;;;;;;;5071563;28;20287;-71
2023/09/22 16:14:08;;;;;;;;;;;;;;;;;;5071167;28;19916;-71
2023/09/22 16:16:36;;;;;;;;;;;;;;;;;;5071417;28;19909;-71
2023/09/22 16:19:02;;;;;;;;;;;;;;;;;;5073987;28;19908;-71
2023/09/22 16:21:28;;;;;;;;;;;;;;;;;;5075428;28;19954;-71
2023/09/22 16:23:54;;;;;;;;;;;;;;;;;;5075382;28;19908;-72
2023/09/22 16:26:20;;;;;;;;;;;;;;;;;;5075222;28;19928;-71
2023/09/22 16:28:45;;;;;;;;;;;;;;;;;;5075436;28;19908;-71
2023/09/22 16:31:11;;;;;;;;;;;;;;;;;;5075276;28;19916;-71
2023/09/22 16:33:37;;;;;;;;;;;;;;;;;;5074796;28;20326;-72
2023/09/22 16:36:05;;;;;;;;;;;;;;;;;;5073625;28;19961;-69
2023/09/22 16:38:32;;;;;;;;;;;;;;;;;;5075094;28;19938;-70